createdAt,value
2023-02-15T00:01:55.972Z,25.58
2023-02-15T00:04:27.549Z,28.23
2023-02-15T00:06:54.336Z,27.77
2023-02-15T00:09:22.800Z,27.77
2023-02-15T00:11:50.843Z,27.25
2023-02-15T00:14:23.968Z,26.92
2023-02-15T00:16:52.837Z,27.98
2023-02-15T00:19:22.429Z,27.25
2023-02-15T00:21:50.104Z,26.05
2023-02-15T00:24:20.411Z,26.65
2023-02-15T00:26:51.226Z,21.60
2023-02-15T00:29:21.283Z,25.65
2023-02-15T00:31:48.525Z,28.00
2023-02-15T00:34:21.489Z,26.75
2023-02-15T00:36:48.350Z,25.48
2023-02-15T00:39:16.819Z,26.73
2023-02-15T00:41:44.400Z,27.42
2023-02-15T00:44:14.028Z,27.88
2023-02-15T00:46:42.867Z,27.77
2023-02-15T00:49:12.687Z,26.83
2023-02-15T00:51:40.251Z,29.17
2023-02-15T00:54:10.012Z,26.83
2023-02-15T00:56:37.046Z,25.95
2023-02-15T00:59:11.799Z,26.83
2023-02-15T01:01:38.720Z,24.30
2023-02-15T01:04:07.015Z,26.80
2023-02-15T01:06:34.137Z,27.25
2023-02-15T01:09:01.224Z,27.10
2023-02-15T01:11:28.079Z,28.10
2023-02-15T01:13:57.505Z,26.75
2023-02-15T01:16:25.829Z,28.10
2023-02-15T01:18:53.021Z,26.80
2023-02-15T01:21:24.053Z,28.65
2023-02-15T01:23:50.993Z,29.73
2023-02-15T01:26:19.582Z,27.35
2023-02-15T01:28:47.129Z,27.17
2023-02-15T01:31:16.188Z,28.15
2023-02-15T01:33:43.227Z,28.50
2023-02-15T01:36:10.328Z,27.80
2023-02-15T01:38:38.497Z,27.73
2023-02-15T01:41:05.287Z,28.20
2023-02-15T01:43:41.440Z,29.73
2023-02-15T01:46:10.054Z,29.88
2023-02-15T01:48:41.858Z,28.10
2023-02-15T01:51:10.116Z,28.40
2023-02-15T01:53:43.737Z,27.77
2023-02-15T01:56:14.617Z,29.45
2023-02-15T01:58:43.071Z,29.42
2023-02-15T02:01:10.103Z,27.38
2023-02-15T02:03:44.243Z,29.80
2023-02-15T02:06:11.037Z,30.00
2023-02-15T02:08:39.239Z,28.60
2023-02-15T02:11:11.633Z,28.85
2023-02-15T02:13:39.048Z,27.40
2023-02-15T02:16:12.653Z,29.08
2023-02-15T02:18:53.836Z,26.80
2023-02-15T02:22:03.600Z,28.98
2023-02-15T02:24:57.477Z,28.77
2023-02-15T02:27:48.001Z,27.02
2023-02-15T02:30:56.273Z,26.73
2023-02-15T02:33:52.478Z,25.65
2023-02-15T02:36:26.569Z,26.60
2023-02-15T02:39:07.414Z,26.73
2023-02-15T02:41:46.808Z,24.98
2023-02-15T02:44:24.464Z,25.02
2023-02-15T02:46:55.693Z,26.30
2023-02-15T02:49:39.908Z,25.88
2023-02-15T02:52:08.497Z,26.00
2023-02-15T02:54:39.679Z,26.23
2023-02-15T02:59:42.899Z,27.13
2023-02-15T03:02:14.714Z,29.13
2023-02-15T03:04:48.814Z,31.02
2023-02-15T03:07:22.168Z,32.65
2023-02-15T03:09:53.249Z,31.80
2023-02-15T03:12:28.187Z,32.13
2023-02-15T03:15:01.597Z,31.48
2023-02-15T03:17:32.634Z,30.63
2023-02-15T03:22:46.488Z,29.00
2023-02-15T03:25:19.476Z,28.35
2023-02-15T03:27:50.172Z,31.63
2023-02-15T03:30:22.312Z,33.00
2023-02-15T03:32:53.710Z,31.92
2023-02-15T03:35:27.627Z,30.10
2023-02-15T03:38:00.280Z,32.47
2023-02-15T03:40:32.610Z,31.35
2023-02-15T03:43:04.427Z,30.73
2023-02-15T03:45:34.553Z,31.63
2023-02-15T03:48:02.905Z,29.52
2023-02-15T03:50:34.588Z,31.63
2023-02-15T03:53:04.929Z,31.92
2023-02-15T03:55:34.184Z,30.80
2023-02-15T03:58:01.350Z,34.67
2023-02-15T04:00:28.775Z,35.38
2023-02-15T04:03:24.410Z,37.05
2023-02-15T04:05:53.214Z,35.28
2023-02-15T04:08:20.253Z,35.85
2023-02-15T04:10:46.949Z,35.92
2023-02-15T04:13:13.803Z,36.10
2023-02-15T04:15:44.038Z,37.80
2023-02-15T04:18:12.049Z,37.45
2023-02-15T04:20:39.377Z,37.17
2023-02-15T04:23:12.127Z,35.33
2023-02-15T04:25:40.006Z,37.10
2023-02-15T04:28:07.342Z,34.63
2023-02-15T04:30:40.465Z,36.15
2023-02-15T04:33:12.929Z,35.38
2023-02-15T04:35:40.111Z,34.92
2023-02-15T04:38:08.682Z,35.72
2023-02-15T04:40:36.004Z,33.78
2023-02-15T04:43:04.969Z,33.67
2023-02-15T04:45:31.762Z,34.08
2023-02-15T04:48:01.084Z,32.78
2023-02-15T04:50:27.783Z,32.20
2023-02-15T04:52:55.015Z,31.10
2023-02-15T04:55:23.183Z,32.90
2023-02-15T04:57:53.037Z,33.20
2023-02-15T05:00:20.509Z,31.67
2023-02-15T05:02:47.259Z,34.65
2023-02-15T05:05:14.293Z,34.60
2023-02-15T05:07:41.702Z,32.95
2023-02-15T05:10:10.748Z,31.13
2023-02-15T05:12:39.389Z,32.17
2023-02-15T05:15:07.020Z,30.75
2023-02-15T05:17:33.794Z,31.52
2023-02-15T05:20:01.354Z,31.75
2023-02-15T05:22:31.400Z,31.42
2023-02-15T05:24:59.337Z,31.23
2023-02-15T05:27:28.575Z,31.70
2023-02-15T05:29:57.519Z,31.33
2023-02-15T05:32:24.848Z,31.90
2023-02-15T05:34:52.271Z,31.20
2023-02-15T05:37:22.483Z,29.48
2023-02-15T05:39:49.558Z,31.40
2023-02-15T05:42:53.595Z,33.72
2023-02-15T05:45:29.504Z,34.40
2023-02-15T05:47:56.286Z,35.53
2023-02-15T05:50:23.021Z,32.65
2023-02-15T05:52:52.311Z,33.00
2023-02-15T05:55:19.996Z,33.03
2023-02-15T05:57:49.953Z,33.00
2023-02-15T06:00:18.944Z,31.98
2023-02-15T06:02:48.516Z,31.70
2023-02-15T06:05:15.440Z,33.72
2023-02-15T06:07:46.831Z,31.98
2023-02-15T06:10:14.566Z,36.28
2023-02-15T06:12:41.239Z,34.22
2023-02-15T06:15:11.346Z,38.10
2023-02-15T06:17:38.302Z,38.17
2023-02-15T06:20:08.643Z,41.55
2023-02-15T06:22:36.144Z,44.27
2023-02-15T06:25:03.244Z,41.72
2023-02-15T06:27:30.896Z,43.28
2023-02-15T06:29:57.998Z,44.03
2023-02-15T06:32:24.990Z,50.45
2023-02-15T06:34:53.250Z,57.40
2023-02-15T06:37:25.678Z,53.58
2023-02-15T06:39:52.439Z,53.85
2023-02-15T06:42:19.717Z,54.88
2023-02-15T06:44:46.725Z,49.70
2023-02-15T06:47:13.715Z,52.08
2023-02-15T06:49:40.592Z,49.97
2023-02-15T06:52:07.570Z,48.65
2023-02-15T06:54:35.986Z,54.42
2023-02-15T06:57:03.045Z,54.50
2023-02-15T06:59:32.042Z,51.10
2023-02-15T07:01:59.222Z,56.92
2023-02-15T07:04:29.476Z,47.50
2023-02-15T07:06:57.199Z,46.67
2023-02-15T07:09:26.396Z,50.55
2023-02-15T07:11:54.708Z,48.33
2023-02-15T07:14:21.576Z,48.22
2023-02-15T07:16:48.322Z,48.08
2023-02-15T07:19:15.345Z,48.50
2023-02-15T07:21:42.175Z,45.03
2023-02-15T07:24:08.941Z,48.22
2023-02-15T07:26:36.692Z,47.95
2023-02-15T07:29:08.272Z,51.08
2023-02-15T07:31:35.436Z,51.75
2023-02-15T07:34:02.477Z,49.15
2023-02-15T07:36:29.830Z,56.45
2023-02-15T07:38:56.874Z,50.20
2023-02-15T07:41:24.078Z,50.33
2023-02-15T07:43:50.965Z,51.65
2023-02-15T07:46:19.739Z,45.55
2023-02-15T07:48:48.634Z,49.65
2023-02-15T07:51:18.632Z,56.47
2023-02-15T07:53:47.715Z,54.78
2023-02-15T07:56:16.664Z,49.45
2023-02-15T07:58:44.552Z,47.90
2023-02-15T08:01:11.449Z,43.17
2023-02-15T08:03:40.289Z,47.17
2023-02-15T08:06:07.803Z,47.40
2023-02-15T08:08:35.753Z,48.00
2023-02-15T08:11:04.575Z,46.28
2023-02-15T08:13:31.348Z,47.70
2023-02-15T08:15:58.166Z,47.33
2023-02-15T08:18:25.167Z,45.42
2023-02-15T08:20:53.358Z,48.67
2023-02-15T08:23:20.538Z,44.83
2023-02-15T08:25:47.804Z,46.17
2023-02-15T08:28:15.080Z,47.42
2023-02-15T08:30:41.938Z,47.08
2023-02-15T08:33:08.733Z,50.10
2023-02-15T08:35:35.667Z,51.65
2023-02-15T08:38:03.951Z,49.63
2023-02-15T08:40:30.722Z,47.78
2023-02-15T08:42:57.709Z,46.42
2023-02-15T08:45:24.642Z,51.58
2023-02-15T08:47:51.688Z,49.92
2023-02-15T08:50:18.986Z,48.53
2023-02-15T08:52:45.975Z,51.80
2023-02-15T08:55:14.835Z,49.85
2023-02-15T08:57:48.424Z,47.33
2023-02-15T09:00:20.221Z,49.80
2023-02-15T09:02:47.019Z,49.95
2023-02-15T09:05:17.799Z,50.53
2023-02-15T09:07:47.891Z,50.45
2023-02-15T09:10:20.277Z,51.60
2023-02-15T09:12:47.625Z,51.72
2023-02-15T09:15:15.067Z,50.70
2023-02-15T09:17:47.271Z,52.88
2023-02-15T09:20:20.789Z,51.85
2023-02-15T09:22:55.053Z,53.25
2023-02-15T09:25:35.143Z,52.85
2023-02-15T09:28:02.264Z,51.17
2023-02-15T09:30:29.400Z,52.03
2023-02-15T09:32:56.646Z,53.47
2023-02-15T09:35:23.493Z,52.50
2023-02-15T09:37:51.218Z,51.75
2023-02-15T09:40:19.175Z,51.05
2023-02-15T09:43:08.396Z,51.25
2023-02-15T09:45:52.450Z,50.05
2023-02-15T09:48:40.967Z,52.60
2023-02-15T09:51:37.525Z,51.05
2023-02-15T09:54:16.559Z,49.97
2023-02-15T09:56:51.135Z,49.03
2023-02-15T09:59:30.816Z,49.45
2023-02-15T10:02:12.205Z,47.75
2023-02-15T10:07:33.142Z,47.33
2023-02-15T10:10:13.475Z,47.30
2023-02-15T10:13:23.204Z,45.75
2023-02-15T10:16:17.790Z,46.75
2023-02-15T10:18:56.885Z,44.67
2023-02-15T10:21:35.630Z,43.90
2023-02-15T10:24:48.736Z,45.78
2023-02-15T10:27:21.082Z,44.95
2023-02-15T10:29:59.963Z,42.15
2023-02-15T10:40:11.739Z,42.00
2023-02-15T10:43:32.512Z,43.47
2023-02-15T10:50:02.661Z,42.47
2023-02-15T10:56:29.450Z,41.30
2023-02-15T11:12:45.790Z,37.22
2023-02-15T11:24:54.907Z,40.05
2023-02-15T11:27:25.395Z,37.95
2023-02-15T11:33:29.576Z,36.97
2023-02-15T11:36:02.130Z,37.10
2023-02-15T11:38:38.919Z,36.80
2023-02-15T11:41:14.766Z,38.58
2023-02-15T11:43:47.400Z,38.70
2023-02-15T11:46:17.084Z,38.95
2023-02-15T11:49:01.694Z,38.28
2023-02-15T11:51:28.827Z,37.85
2023-02-15T11:53:57.639Z,36.83
2023-02-15T11:56:25.915Z,37.67
2023-02-15T11:59:01.301Z,38.72
2023-02-15T12:01:32.835Z,38.38
2023-02-15T12:04:04.184Z,36.40
2023-02-15T12:09:31.327Z,34.58
2023-02-15T12:12:22.430Z,33.85
2023-02-15T12:14:53.322Z,33.42
2023-02-15T12:17:25.998Z,34.17
2023-02-15T12:19:56.165Z,32.13
2023-02-15T12:22:28.676Z,31.17
2023-02-15T12:25:00.627Z,31.80
2023-02-15T12:27:30.271Z,33.13
2023-02-15T12:30:03.896Z,31.80
2023-02-15T12:32:37.316Z,30.60
2023-02-15T12:35:23.091Z,29.45
2023-02-15T12:38:32.581Z,30.45
2023-02-15T12:41:04.139Z,29.15
2023-02-15T12:43:46.614Z,27.77
2023-02-15T12:46:25.132Z,27.52
2023-02-15T12:49:10.824Z,28.50
2023-02-15T12:51:46.064Z,26.15
2023-02-15T12:54:38.985Z,27.23
2023-02-15T12:57:32.868Z,26.77
2023-02-15T13:00:04.605Z,25.90
2023-02-15T13:02:47.166Z,28.02
2023-02-15T13:05:24.050Z,28.40
2023-02-15T13:07:54.427Z,28.70
2023-02-15T13:10:27.933Z,30.42
2023-02-15T13:12:57.731Z,29.23
2023-02-15T13:15:37.925Z,29.92
2023-02-15T13:18:12.102Z,30.83
2023-02-15T13:20:45.666Z,29.42
2023-02-15T13:23:26.538Z,30.95
2023-02-15T13:25:59.070Z,29.52
2023-02-15T13:28:39.370Z,30.05
2023-02-15T13:31:16.109Z,30.77
2023-02-15T13:33:50.243Z,29.63
2023-02-15T13:36:24.920Z,29.55
2023-02-15T13:39:15.474Z,30.23
2023-02-15T13:41:55.444Z,29.70
2023-02-15T13:44:42.844Z,29.92
2023-02-15T13:47:42.805Z,28.27
2023-02-15T13:50:36.206Z,29.48
2023-02-15T13:53:25.957Z,29.05
2023-02-15T13:56:07.960Z,29.13
2023-02-15T13:59:04.949Z,29.25
2023-02-15T14:01:46.904Z,30.63
2023-02-15T14:04:41.956Z,29.27
2023-02-15T14:07:32.273Z,29.65
2023-02-15T14:10:11.780Z,28.67
2023-02-15T14:12:53.311Z,28.75
2023-02-15T14:18:05.374Z,28.48
2023-02-15T14:20:46.110Z,29.05
2023-02-15T14:23:22.532Z,29.03
2023-02-15T14:25:56.034Z,29.02
2023-02-15T14:28:30.068Z,29.75
2023-02-15T14:30:57.785Z,30.63
2023-02-15T14:33:40.193Z,28.50
2023-02-15T14:36:17.471Z,28.67
2023-02-15T14:38:56.407Z,29.08
2023-02-15T14:41:33.211Z,28.98
2023-02-15T14:44:10.240Z,28.52
2023-02-15T14:46:49.303Z,29.27
2023-02-15T14:49:27.779Z,29.73
2023-02-15T14:51:59.804Z,28.92
2023-02-15T14:54:55.273Z,27.60
2023-02-15T14:57:25.128Z,28.25
2023-02-15T14:59:58.162Z,27.73
2023-02-15T15:02:29.183Z,27.27
2023-02-15T15:05:03.512Z,27.90
2023-02-15T15:07:38.663Z,28.05
2023-02-15T15:10:28.376Z,28.42
2023-02-15T15:12:57.994Z,28.70
2023-02-15T15:15:35.349Z,28.73
2023-02-15T15:18:05.215Z,29.50
2023-02-15T15:20:46.635Z,28.20
2023-02-15T15:23:44.750Z,29.83
2023-02-15T15:26:31.378Z,30.08
2023-02-15T15:29:02.858Z,29.10
2023-02-15T15:31:46.106Z,29.92
2023-02-15T15:34:44.793Z,30.45
2023-02-15T15:37:44.010Z,29.70
2023-02-15T15:40:49.566Z,30.42
2023-02-15T15:43:38.072Z,29.75
2023-02-15T15:46:24.739Z,28.65
2023-02-15T15:48:53.296Z,29.23
2023-02-15T15:51:24.410Z,29.33
2023-02-15T15:53:52.546Z,30.52
2023-02-15T15:56:25.526Z,29.77
2023-02-15T15:58:55.069Z,30.40
2023-02-15T16:01:27.806Z,29.60
2023-02-15T16:03:56.975Z,29.52
2023-02-15T16:06:35.665Z,29.05
2023-02-15T16:09:17.609Z,30.17
2023-02-15T16:16:14.068Z,29.83
2023-02-15T16:19:16.345Z,30.13
2023-02-15T16:21:49.589Z,30.30
2023-02-15T16:24:33.792Z,29.52
2023-02-15T16:27:23.948Z,30.00
2023-02-15T16:29:56.059Z,30.70
2023-02-15T16:32:26.564Z,30.77
2023-02-15T16:34:59.180Z,31.17
2023-02-15T16:37:32.536Z,32.15
2023-02-15T16:39:59.795Z,31.10
2023-02-15T16:42:27.154Z,31.92
2023-02-15T16:44:58.468Z,31.67
2023-02-15T16:50:18.502Z,32.05
2023-02-15T16:52:46.873Z,34.50
2023-02-15T16:55:23.003Z,33.47
2023-02-15T16:57:50.620Z,31.92
2023-02-15T17:00:27.682Z,33.33
2023-02-15T17:03:27.784Z,33.03
2023-02-15T17:06:27.773Z,33.45
2023-02-15T17:09:04.491Z,34.47
2023-02-15T17:11:36.733Z,35.30
2023-02-15T17:14:20.467Z,34.33
2023-02-15T17:16:53.326Z,36.08
2023-02-15T17:19:25.496Z,37.38
2023-02-15T17:21:55.406Z,36.25
2023-02-15T17:24:38.554Z,34.85
2023-02-15T17:27:16.263Z,37.80
2023-02-15T17:30:01.084Z,37.90
2023-02-15T17:32:30.930Z,38.33
2023-02-15T17:35:21.878Z,38.22
2023-02-15T17:37:52.014Z,39.37
2023-02-15T17:40:25.588Z,38.17
2023-02-15T17:42:54.031Z,39.92
2023-02-15T17:45:28.163Z,37.30
2023-02-15T17:47:55.807Z,39.47
2023-02-15T17:50:26.675Z,39.90
2023-02-15T17:52:57.219Z,39.20
2023-02-15T17:55:25.025Z,39.15
2023-02-15T17:57:52.106Z,37.83
2023-02-15T18:00:19.360Z,38.40
2023-02-15T18:02:48.422Z,39.47
2023-02-15T18:05:16.681Z,40.78
2023-02-15T18:07:49.890Z,39.05
2023-02-15T18:10:18.863Z,39.85
2023-02-15T18:12:47.279Z,39.45
2023-02-15T18:15:14.836Z,40.58
2023-02-15T18:17:46.975Z,42.08
2023-02-15T18:20:19.604Z,39.83
2023-02-15T18:22:48.031Z,39.33
2023-02-15T18:25:17.626Z,40.58
2023-02-15T18:27:44.527Z,39.85
2023-02-15T18:30:15.741Z,40.65
2023-02-15T18:32:43.412Z,41.83
2023-02-15T18:35:15.048Z,44.17
2023-02-15T18:37:41.967Z,42.33
2023-02-15T18:40:15.443Z,44.22
2023-02-15T18:42:43.489Z,44.95
2023-02-15T18:45:15.848Z,44.75
2023-02-15T18:47:42.847Z,43.97
2023-02-15T18:50:09.854Z,43.72
2023-02-15T18:52:38.596Z,47.33
2023-02-15T18:55:18.048Z,45.58
2023-02-15T18:57:45.485Z,45.53
2023-02-15T19:00:16.119Z,44.75
2023-02-15T19:02:43.416Z,45.55
2023-02-15T19:05:10.580Z,45.22
2023-02-15T19:07:38.347Z,43.03
2023-02-15T19:10:08.463Z,44.95
2023-02-15T19:12:36.548Z,45.20
2023-02-15T19:15:03.489Z,44.95
2023-02-15T19:17:30.294Z,46.08
2023-02-15T19:19:57.359Z,45.95
2023-02-15T19:22:27.120Z,45.58
2023-02-15T19:24:56.000Z,46.22
2023-02-15T19:27:26.487Z,44.28
2023-02-15T19:29:57.266Z,45.13
2023-02-15T19:32:24.298Z,45.50
2023-02-15T19:34:51.730Z,45.42
2023-02-15T19:37:24.651Z,46.10
2023-02-15T19:39:52.182Z,44.88
2023-02-15T19:42:22.160Z,44.42
2023-02-15T19:44:48.991Z,43.35
2023-02-15T19:47:18.078Z,44.90
2023-02-15T19:49:46.200Z,44.88
2023-02-15T19:52:17.582Z,44.75
2023-02-15T19:57:14.939Z,44.90
2023-02-15T19:59:42.221Z,45.08
2023-02-15T20:02:13.767Z,43.33
2023-02-15T20:04:42.421Z,44.97
2023-02-15T20:07:18.092Z,42.80
2023-02-15T20:09:46.227Z,45.67
2023-02-15T20:12:21.243Z,44.92
2023-02-15T20:14:48.305Z,44.42
2023-02-15T20:17:20.198Z,44.92
2023-02-15T20:19:48.917Z,44.83
2023-02-15T20:22:24.992Z,45.47
2023-02-15T20:24:53.417Z,43.75
2023-02-15T20:27:20.407Z,44.35
2023-02-15T20:29:49.176Z,46.80
2023-02-15T20:32:16.345Z,44.33
2023-02-15T20:34:43.241Z,44.10
2023-02-15T20:37:24.056Z,44.95
2023-02-15T20:39:52.351Z,44.50
2023-02-15T20:42:19.798Z,45.15
2023-02-15T20:44:46.739Z,44.78
2023-02-15T20:47:14.384Z,44.70
2023-02-15T20:49:41.318Z,45.50
2023-02-15T20:52:22.712Z,48.58
2023-02-15T20:57:30.222Z,44.78
2023-02-15T20:59:57.175Z,44.78
2023-02-15T21:02:26.085Z,45.42
2023-02-15T21:05:19.872Z,44.83
2023-02-15T21:07:54.253Z,45.33
2023-02-15T21:11:03.691Z,44.88
2023-02-15T21:13:50.602Z,45.72
2023-02-15T21:16:24.344Z,44.67
2023-02-15T21:18:57.359Z,45.65
2023-02-15T21:21:53.921Z,44.65
2023-02-15T21:27:35.783Z,45.97
2023-02-15T21:30:07.137Z,44.00
2023-02-15T21:35:03.274Z,42.83
2023-02-15T21:37:36.242Z,45.42
2023-02-15T21:40:16.788Z,45.65
2023-02-15T21:42:45.376Z,46.93
2023-02-15T21:45:17.417Z,46.00
2023-02-15T21:47:45.427Z,46.50
2023-02-15T21:50:15.393Z,46.30
2023-02-15T21:52:43.355Z,47.25
2023-02-15T21:55:14.535Z,48.22
2023-02-15T21:57:42.650Z,45.55
2023-02-15T22:00:14.772Z,47.20
2023-02-15T22:02:43.323Z,46.90
2023-02-15T22:05:13.945Z,47.03
2023-02-15T22:07:40.631Z,47.13
2023-02-15T22:10:07.940Z,47.72
2023-02-15T22:12:36.674Z,48.55
2023-02-15T22:15:04.732Z,48.00
2023-02-15T22:17:31.962Z,46.40
2023-02-15T22:19:58.808Z,49.35
2023-02-15T22:22:26.857Z,47.28
2023-02-15T22:24:53.625Z,48.55
2023-02-15T22:27:22.806Z,47.53
2023-02-15T22:29:54.730Z,48.92
2023-02-15T22:32:24.319Z,47.08
2023-02-15T22:34:52.522Z,46.70
2023-02-15T22:37:19.669Z,48.28
2023-02-15T22:39:46.828Z,47.05
2023-02-15T22:42:22.647Z,47.00
2023-02-15T22:44:49.366Z,46.95
2023-02-15T22:47:21.206Z,46.95
2023-02-15T22:49:48.016Z,48.13
2023-02-15T22:52:15.801Z,48.00
2023-02-15T22:54:43.908Z,46.95
2023-02-15T22:57:18.337Z,47.55
2023-02-15T22:59:48.322Z,46.35
2023-02-15T23:02:15.612Z,48.03
2023-02-15T23:04:43.834Z,47.13
2023-02-15T23:07:14.336Z,46.92
2023-02-15T23:09:41.354Z,46.70
2023-02-15T23:12:25.459Z,46.95
2023-02-15T23:14:54.435Z,47.83
2023-02-15T23:17:21.898Z,45.92
2023-02-15T23:19:50.496Z,48.88
2023-02-15T23:22:21.472Z,46.88
2023-02-15T23:24:52.634Z,46.17
2023-02-15T23:27:19.371Z,46.25
2023-02-15T23:29:46.295Z,46.40
2023-02-15T23:32:15.347Z,46.28
2023-02-15T23:34:43.101Z,45.65
2023-02-15T23:37:13.081Z,47.38
2023-02-15T23:39:40.176Z,45.58
2023-02-15T23:42:13.564Z,46.67
2023-02-15T23:44:42.179Z,48.08
2023-02-15T23:47:21.704Z,47.03
2023-02-15T23:49:48.767Z,46.42
2023-02-15T23:52:16.905Z,46.72
2023-02-15T23:54:43.657Z,46.85
2023-02-15T23:57:14.205Z,48.20
2023-02-15T23:59:43.717Z,46.97
